Time;durP1;ratioP1;P1;durP2;ratioP2;P2;SDS_P1;SDS_P2;PMS_P1;PMS_P2;Temp;Humidity;BMP_temperature;BMP_pressure;BME280_temperature;BME280_humidity;BME280_pressure;Samples;Min_cycle;Max_cycle;Signal;HPM_P1;HPM_P2
2022/05/13 00:00:12;;;;;;;0.55;0.35;;;;;;;24.73;32.38;97811.88;5106829;28;20289;-69
2022/05/13 00:02:38;;;;;;;3.53;0.50;;;;;;;24.72;32.24;97816.44;5107295;28;20103;-69
2022/05/13 00:05:07;;;;;;;4.65;1.00;;;;;;;24.72;32.22;97819.16;5107035;28;20229;-70
2022/05/13 00:07:33;;;;;;;4.55;0.50;;;;;;;24.67;32.45;97821.81;5107073;28;20055;-69
2022/05/13 00:10:05;;;;;;;1.30;0.50;;;;;;;24.62;32.16;97813.63;5106732;28;20032;-69
2022/05/13 00:12:34;;;;;;;0.93;0.52;;;;;;;24.56;32.21;97820.06;5106368;28;20024;-69
2022/05/13 00:15:00;;;;;;;2.05;0.50;;;;;;;24.50;32.30;97813.75;5106665;28;20034;-69
2022/05/13 00:17:27;;;;;;;0.82;0.50;;;;;;;24.50;32.45;97811.91;5092925;28;20091;-70
2022/05/13 00:19:53;;;;;;;1.92;0.65;;;;;;;24.51;32.32;97818.94;5086536;28;20170;-69
2022/05/13 00:22:19;;;;;;;4.88;0.70;;;;;;;24.47;32.51;97822.41;5088705;28;20035;-70
2022/05/13 00:24:45;;;;;;;1.65;0.70;;;;;;;24.40;32.39;97819.06;5106881;28;20225;-68
2022/05/13 00:27:11;;;;;;;1.80;1.00;;;;;;;24.33;32.66;97816.56;5106231;28;20048;-68
2022/05/13 00:29:37;;;;;;;2.72;0.77;;;;;;;24.29;32.66;97826.25;5106342;28;20048;-69
2022/05/13 00:32:03;;;;;;;4.03;0.57;;;;;;;24.21;32.77;97822.94;5106364;28;20046;-67
2022/05/13 00:34:28;;;;;;;1.80;0.50;;;;;;;24.15;33.43;97825.81;5106754;28;20093;-67
2022/05/13 00:36:54;;;;;;;2.95;0.50;;;;;;;24.12;32.69;97812.81;5106686;28;20024;-69
2022/05/13 00:39:19;;;;;;;0.60;0.55;;;;;;;24.11;32.81;97825.50;5106628;28;20028;-68
2022/05/13 00:41:46;;;;;;;0.50;0.40;;;;;;;24.06;32.80;97817.34;5106543;28;20036;-69
2022/05/13 00:44:13;;;;;;;2.13;0.40;;;;;;;24.01;33.08;97826.19;5106368;28;20245;-68
2022/05/13 00:46:39;;;;;;;0.93;0.60;;;;;;;23.98;32.84;97815.88;5106505;28;20032;-66
2022/05/13 00:49:07;;;;;;;0.75;0.40;;;;;;;23.97;33.06;97827.75;5092568;28;20201;-69
2022/05/13 00:51:38;;;;;;;2.67;0.60;;;;;;;23.95;32.90;97826.34;5110587;28;20085;-68
2022/05/13 00:54:06;;;;;;;0.65;0.50;;;;;;;23.91;33.23;97831.41;5110624;28;20047;-67
2022/05/13 00:56:34;;;;;;;1.40;0.52;;;;;;;23.88;33.34;97842.75;5109250;28;20060;-66
2022/05/13 00:59:05;;;;;;;2.20;0.75;;;;;;;23.86;33.42;97842.16;5110433;28;20125;-67
2022/05/13 01:01:31;;;;;;;0.52;0.40;;;;;;;23.86;33.23;97840.28;5110147;28;20036;-66
2022/05/13 01:04:07;;;;;;;1.02;0.40;;;;;;;23.87;33.25;97852.72;5110094;28;20035;-69
2022/05/13 01:06:33;;;;;;;0.98;0.40;;;;;;;23.90;33.65;97854.09;5097221;28;20331;-67
2022/05/13 01:09:00;;;;;;;0.80;0.40;;;;;;;23.93;33.13;97842.78;5090020;28;20091;-68
2022/05/13 01:11:30;;;;;;;1.42;0.38;;;;;;;23.97;33.39;97851.28;5089957;28;20020;-66
2022/05/13 01:14:01;;;;;;;1.10;0.45;;;;;;;24.02;33.07;97854.84;5109826;28;20040;-67
2022/05/13 01:16:27;;;;;;;;;;;;;;;23.95;33.14;97843.38;5110570;28;20253;-67
2022/05/13 01:18:52;;;;;;;1.88;0.47;;;;;;;23.98;33.05;97853.72;5110064;28;19923;-68
2022/05/13 01:21:26;;;;;;;0.77;0.38;;;;;;;23.94;33.23;97852.53;5110008;28;20070;-67
2022/05/13 01:23:53;;;;;;;0.88;0.30;;;;;;;23.91;33.52;97842.22;5109619;28;20145;-68
2022/05/13 01:26:25;;;;;;;0.90;0.45;;;;;;;23.92;33.36;97860.91;5109983;28;20101;-68
2022/05/13 01:28:54;;;;;;;1.92;0.47;;;;;;;23.96;33.60;97863.94;5109669;28;20153;-69
2022/05/13 01:31:32;;;;;;;1.55;0.40;;;;;;;23.96;33.29;97841.50;5109869;28;20058;-67
2022/05/13 01:34:00;;;;;;;1.17;0.50;;;;;;;24.00;32.87;97864.25;5109889;28;20048;-69
2022/05/13 01:36:27;;;;;;;0.82;0.40;;;;;;;23.97;32.94;97843.97;5109723;28;20020;-67
2022/05/13 01:38:53;;;;;;;2.10;0.60;;;;;;;23.99;33.18;97859.91;5109706;28;20032;-69
2022/05/13 01:41:19;;;;;;;0.32;0.32;;;;;;;24.00;33.06;97861.56;5109716;28;20087;-68
2022/05/13 01:43:47;;;;;;;2.00;0.45;;;;;;;24.01;33.30;97869.41;5109392;28;20040;-68
2022/05/13 01:46:12;;;;;;;1.50;0.30;;;;;;;23.99;33.14;97860.75;5109909;28;20035;-66
2022/05/13 01:48:39;;;;;;;1.10;0.43;;;;;;;23.98;33.19;97860.97;5109350;28;20130;-67
2022/05/13 01:51:05;;;;;;;0.40;0.40;;;;;;;23.95;32.97;97870.38;5109572;28;20099;-68
2022/05/13 01:53:31;;;;;;;0.47;0.30;;;;;;;23.90;33.21;97860.31;5109390;28;20028;-68
2022/05/13 01:55:56;;;;;;;1.33;0.30;;;;;;;23.84;33.38;97855.91;5095282;28;20226;-67
2022/05/13 01:58:24;;;;;;;0.98;0.50;;;;;;;23.78;33.17;97865.81;5095150;28;20093;-67
2022/05/13 02:00:53;;;;;;;3.38;0.63;;;;;;;23.74;33.42;97862.00;5109229;28;20051;-68
2022/05/13 02:06:03;;;;;;;6.05;0.40;;;;;;;23.79;33.41;97861.25;5109307;28;20027;-67
2022/05/13 02:08:30;;;;;;;0.98;0.30;;;;;;;23.82;33.55;97871.56;5109119;28;20036;-68
2022/05/13 02:10:57;;;;;;;2.10;0.60;;;;;;;23.85;33.29;97870.25;5109134;28;20054;-67
2022/05/13 02:13:22;;;;;;;1.10;0.63;;;;;;;23.84;33.45;97879.41;5108377;28;20043;-67
2022/05/13 02:15:48;;;;;;;1.35;0.30;;;;;;;23.84;33.13;97877.50;5109125;28;20031;-67
2022/05/13 02:18:13;;;;;;;9.70;0.82;;;;;;;23.85;33.21;97881.84;5108866;28;20080;-67
2022/05/13 02:20:40;;;;;;;1.55;0.38;;;;;;;23.85;33.46;97883.75;5109018;28;20057;-67
2022/05/13 02:23:06;;;;;;;7.28;0.88;;;;;;;23.84;33.25;97884.81;5108710;28;20149;-68
2022/05/13 02:25:33;;;;;;;1.02;0.55;;;;;;;23.89;33.33;97884.91;5108940;28;20054;-66
2022/05/13 02:27:59;;;;;;;1.73;0.38;;;;;;;23.91;33.06;97901.66;5096032;28;20238;-67
2022/05/13 02:30:26;;;;;;;0.68;0.40;;;;;;;23.90;32.58;97895.44;5088458;28;20107;-67
2022/05/13 02:32:52;;;;;;;2.05;0.50;;;;;;;23.90;32.70;97897.31;5099023;28;20031;-67
2022/05/13 02:35:17;;;;;;;0.70;0.30;;;;;;;23.91;32.76;97891.66;5108715;28;20020;-68
2022/05/13 02:37:43;;;;;;;1.30;0.30;;;;;;;23.91;33.02;97890.84;5108454;28;20115;-68
2022/05/13 02:40:09;;;;;;;1.15;0.52;;;;;;;23.94;32.73;97903.84;5108610;28;20121;-68
2022/05/13 02:42:35;;;;;;;0.45;0.28;;;;;;;23.93;32.79;97883.31;5108038;28;20024;-67
2022/05/13 02:45:00;;;;;;;6.25;0.82;;;;;;;23.92;32.60;97904.13;5108328;28;20286;-68
2022/05/13 02:47:26;;;;;;;1.38;0.40;;;;;;;23.93;32.85;97897.66;5108445;28;20031;-68
2022/05/13 02:50:17;;;;;;;1.77;0.60;;;;;;;23.95;32.65;97913.59;5108451;28;20107;-68
2022/05/13 02:52:38;;;;;;;1.38;0.60;;;;;;;23.93;32.55;97908.44;5107833;28;20023;-68
2022/05/13 02:55:04;;;;;;;0.63;0.20;;;;;;;23.89;32.35;97914.59;5108323;28;20960;-67
2022/05/13 02:57:30;;;;;;;0.75;0.35;;;;;;;23.89;32.74;97926.22;5108022;28;20107;-67
2022/05/13 02:59:55;;;;;;;3.72;0.63;;;;;;;23.88;32.46;97924.56;5108122;28;20133;-68
2022/05/13 03:02:21;;;;;;;0.95;0.45;;;;;;;23.85;32.77;97924.25;5107773;28;20020;-67
2022/05/13 03:04:47;;;;;;;2.10;0.40;;;;;;;23.83;32.95;97931.78;5108088;28;20077;-66
2022/05/13 03:07:13;;;;;;;1.20;0.30;;;;;;;23.88;32.87;97924.56;5108011;28;20115;-68
2022/05/13 03:09:38;;;;;;;1.35;0.40;;;;;;;23.92;32.29;97933.00;5108080;28;20020;-68
2022/05/13 03:12:05;;;;;;;1.13;0.50;;;;;;;23.93;32.57;97945.44;5107563;28;20225;-67
2022/05/13 03:14:30;;;;;;;4.25;0.50;;;;;;;23.86;32.83;97929.41;5107539;28;20034;-68
2022/05/13 03:16:56;;;;;;;2.17;0.43;;;;;;;23.88;32.66;97934.56;5105955;28;20024;-67
2022/05/13 03:19:22;;;;;;;1.83;0.85;;;;;;;23.91;32.54;97943.00;5107713;28;20048;-67
2022/05/13 03:21:47;;;;;;;4.95;0.65;;;;;;;23.91;32.37;97925.94;5107147;28;20039;-69
2022/05/13 03:24:13;;;;;;;1.20;0.40;;;;;;;23.92;32.79;97943.78;5107725;28;20028;-68
2022/05/13 03:26:38;;;;;;;2.33;0.43;;;;;;;23.91;32.85;97937.59;5089575;28;20030;-68
2022/05/13 03:29:04;;;;;;;1.90;0.68;;;;;;;23.95;32.57;97956.00;5107258;28;20046;-68
2022/05/13 03:31:32;;;;;;;1.77;0.57;;;;;;;23.97;32.50;97951.22;5107504;28;20104;-67
2022/05/13 03:33:58;;;;;;;1.77;0.55;;;;;;;23.97;32.63;97943.13;5107604;28;20148;-67
2022/05/13 03:36:24;;;;;;;1.58;0.32;;;;;;;23.94;32.17;97938.97;5107467;28;20114;-67
2022/05/13 03:38:49;;;;;;;1.20;0.40;;;;;;;23.92;32.41;97943.78;5106665;28;20027;-71
2022/05/13 03:41:15;;;;;;;0.65;0.28;;;;;;;23.95;32.60;97943.31;5107346;28;20054;-69
2022/05/13 03:43:41;;;;;;;1.58;0.60;;;;;;;23.95;32.54;97931.69;5107391;28;20175;-67
2022/05/13 03:46:06;;;;;;;1.80;0.65;;;;;;;23.94;32.78;97955.19;5107295;28;20039;-67
2022/05/13 03:48:32;;;;;;;3.13;0.52;;;;;;;23.92;32.86;97954.59;5106924;28;20156;-67
2022/05/13 03:50:57;;;;;;;1.77;0.40;;;;;;;23.91;32.79;97958.38;5107155;28;20101;-66
2022/05/13 03:53:23;;;;;;;1.77;0.30;;;;;;;23.90;32.55;97954.84;5107192;28;20039;-66
2022/05/13 03:55:49;;;;;;;1.52;0.43;;;;;;;23.90;32.66;97954.03;5107334;28;20034;-68
2022/05/13 03:58:14;;;;;;;2.65;0.73;;;;;;;23.94;32.59;97960.56;5106607;28;20055;-67
2022/05/13 04:00:40;;;;;;;1.45;0.50;;;;;;;23.96;32.57;97958.47;5106971;28;20039;-68
2022/05/13 04:03:06;;;;;;;1.80;0.43;;;;;;;23.98;32.43;97961.75;5106741;28;20028;-68
2022/05/13 04:11:00;;;;;;;3.03;0.50;;;;;;;24.08;32.38;97972.72;5086600;28;20066;-68
2022/05/13 04:16:10;;;;;;;1.63;0.73;;;;;;;24.22;31.85;97977.75;5106908;28;20043;-67
2022/05/13 04:18:38;;;;;;;3.70;0.57;;;;;;;24.30;32.01;97957.59;5106750;28;20229;-67
2022/05/13 04:21:08;;;;;;;2.05;0.50;;;;;;;24.30;31.81;97960.31;5106500;28;20024;-67
2022/05/13 04:23:35;;;;;;;1.13;0.50;;;;;;;24.33;31.56;97979.56;5106402;28;20096;-68
2022/05/13 04:26:01;;;;;;;1.63;0.45;;;;;;;24.44;31.67;97977.78;5106918;28;20081;-67
2022/05/13 04:28:28;;;;;;;2.75;0.65;;;;;;;24.65;31.10;97969.97;5106687;28;20091;-68
2022/05/13 04:30:54;;;;;;;2.33;0.38;;;;;;;24.71;31.25;97984.38;5106781;28;20024;-67
2022/05/13 04:33:19;;;;;;;2.58;0.55;;;;;;;24.66;31.35;97958.06;5106064;28;20246;-67
2022/05/13 04:35:45;;;;;;;0.68;0.35;;;;;;;24.64;31.08;97989.97;5106663;28;20166;-67
2022/05/13 04:38:10;;;;;;;1.77;0.60;;;;;;;24.60;31.36;97972.59;5106565;28;20100;-69
2022/05/13 04:40:36;;;;;;;5.22;0.55;;;;;;;24.55;31.53;97986.88;5106669;28;20135;-68
2022/05/13 04:43:02;;;;;;;1.35;0.50;;;;;;;24.46;31.63;97980.28;5106410;28;20116;-68
2022/05/13 04:45:30;;;;;;;1.70;0.40;;;;;;;24.48;31.79;97991.66;5106993;28;20213;-68
2022/05/13 04:48:16;;;;;;;4.10;0.68;;;;;;;24.45;31.52;97986.75;5106473;28;20067;-68
2022/05/13 04:50:50;;;;;;;1.35;0.40;;;;;;;24.45;31.59;97970.53;5106549;28;20047;-67
2022/05/13 04:53:19;;;;;;;5.45;0.82;;;;;;;24.47;31.42;97982.72;5105870;28;20028;-68
2022/05/13 04:55:45;;;;;;;4.53;0.55;;;;;;;24.45;31.18;97976.72;5093841;28;20062;-68
2022/05/13 04:58:10;;;;;;;1.33;0.40;;;;;;;24.42;31.55;97979.13;5086053;28;20051;-69
2022/05/13 05:00:36;;;;;;;1.52;0.65;;;;;;;24.46;31.40;97988.38;5086241;28;20028;-68
2022/05/13 05:03:01;;;;;;;3.50;0.50;;;;;;;24.56;30.98;97990.41;5100859;28;20040;-67
2022/05/13 05:05:27;;;;;;;1.83;0.57;;;;;;;24.63;31.09;97991.84;5106385;28;20028;-68
2022/05/13 05:07:54;;;;;;;2.55;0.63;;;;;;;24.82;30.96;97991.56;5105708;28;20092;-66
2022/05/13 05:10:21;;;;;;;2.58;0.45;;;;;;;24.92;30.50;97989.00;5106358;28;20048;-67
2022/05/13 05:12:48;;;;;;;5.72;0.80;;;;;;;25.02;30.33;97979.34;5106435;28;20148;-67
2022/05/13 05:15:14;;;;;;;2.55;0.50;;;;;;;25.05;30.21;97982.34;5106477;28;20028;-67
2022/05/13 05:17:40;;;;;;;2.17;0.57;;;;;;;25.08;30.15;98005.38;5106118;28;20133;-67
2022/05/13 05:20:06;;;;;;;5.43;0.80;;;;;;;25.05;30.34;98003.19;5106220;28;20032;-68
2022/05/13 05:22:32;;;;;;;1.40;0.57;;;;;;;25.03;30.40;97995.31;5106071;28;20271;-68
2022/05/13 05:24:57;;;;;;;1.20;0.52;;;;;;;25.05;30.49;98004.00;5106183;28;20070;-67
2022/05/13 05:27:23;;;;;;;0.85;0.45;;;;;;;25.04;30.27;97998.84;5100126;28;20026;-68
2022/05/13 05:29:49;;;;;;;0.93;0.50;;;;;;;24.98;30.76;98009.59;5106081;28;20251;-68
2022/05/13 05:32:14;;;;;;;5.10;0.63;;;;;;;24.96;30.54;98016.34;5106208;28;20052;-67
2022/05/13 05:34:40;;;;;;;0.95;0.55;;;;;;;24.93;30.55;98016.84;5108365;28;20028;-68
2022/05/13 05:37:06;;;;;;;1.23;0.43;;;;;;;24.93;30.25;98004.13;5109499;28;20043;-67
2022/05/13 05:39:31;;;;;;;4.20;0.63;;;;;;;24.91;30.81;98019.81;5109496;28;20130;-68
2022/05/13 05:41:57;;;;;;;4.45;0.95;;;;;;;24.88;30.67;98011.38;5109570;28;20052;-67
2022/05/13 05:44:22;;;;;;;1.38;0.60;;;;;;;24.88;30.42;98017.63;5109629;28;20081;-67
2022/05/13 05:46:47;;;;;;;2.53;0.82;;;;;;;24.89;30.30;98008.44;5108895;28;20036;-68
2022/05/13 05:49:13;;;;;;;2.85;1.65;;;;;;;24.87;30.52;98017.84;5109098;28;20028;-69
2022/05/13 05:51:38;;;;;;;2.33;0.60;;;;;;;24.87;30.19;98020.56;5109412;28;20028;-68
2022/05/13 05:59:32;;;;;;;2.17;0.70;;;;;;;24.83;30.28;98017.53;5089142;28;20043;-67
2022/05/13 06:01:58;;;;;;;2.50;0.60;;;;;;;24.85;30.42;98028.94;5091887;28;20023;-68
2022/05/13 06:04:24;;;;;;;5.20;0.73;;;;;;;24.83;30.57;98025.66;5109211;28;20080;-68
2022/05/13 06:06:50;;;;;;;2.67;0.80;;;;;;;24.83;30.54;98026.50;5109150;28;20140;-68
2022/05/13 06:09:16;;;;;;;5.90;0.93;;;;;;;24.81;30.21;98019.66;5091459;28;20244;-68
2022/05/13 06:11:41;;;;;;;6.60;0.95;;;;;;;24.78;30.38;98022.88;5108833;28;20077;-67
2022/05/13 06:14:09;;;;;;;1.85;0.80;;;;;;;24.75;30.24;98026.91;5109142;28;20318;-67
2022/05/13 06:16:36;;;;;;;4.22;1.00;;;;;;;24.77;30.48;98023.97;5101504;28;20028;-66
2022/05/13 06:19:01;;;;;;;3.60;0.75;;;;;;;24.81;30.17;98016.97;5106391;28;20165;-67
2022/05/13 06:21:29;;;;;;;2.38;0.80;;;;;;;24.93;29.87;98039.31;5108940;28;20028;-67
2022/05/13 06:23:54;;;;;;;7.40;0.98;;;;;;;24.98;29.98;98039.38;5108738;28;20087;-68
2022/05/13 06:26:21;;;;;;;4.68;0.95;;;;;;;24.99;29.96;98029.38;5108777;28;20024;-68
2022/05/13 06:28:47;;;;;;;4.88;1.17;;;;;;;25.06;29.87;98040.00;5108677;28;20078;-69
2022/05/13 06:31:13;;;;;;;2.90;1.20;;;;;;;25.06;29.90;98040.81;5108743;28;20277;-67
2022/05/13 06:33:39;;;;;;;7.72;1.23;;;;;;;25.09;30.44;98034.06;5108096;28;20245;-67
2022/05/13 06:36:04;;;;;;;5.57;1.15;;;;;;;25.11;30.10;98040.88;5088493;28;20123;-68
2022/05/13 06:38:30;;;;;;;5.35;1.60;;;;;;;25.10;30.08;98044.66;5088226;28;20024;-68
2022/05/13 06:40:55;;;;;;;6.55;1.50;;;;;;;25.04;30.52;98037.53;5088273;28;20054;-68
2022/05/13 06:43:22;;;;;;;2.35;1.02;;;;;;;24.96;30.49;98040.69;5088054;28;20091;-68
2022/05/13 06:45:47;;;;;;;5.53;1.48;;;;;;;24.91;30.24;98032.50;5101699;28;20055;-68
2022/05/13 06:48:13;;;;;;;3.50;1.75;;;;;;;24.90;30.48;98050.66;5108015;28;20237;-68
2022/05/13 06:50:39;;;;;;;6.22;1.33;;;;;;;24.87;30.29;98045.72;5108322;28;20020;-68
2022/05/13 06:53:05;;;;;;;4.85;1.55;;;;;;;24.90;30.66;98045.25;5107999;28;20138;-68
2022/05/13 06:55:31;;;;;;;2.88;1.52;;;;;;;24.91;30.29;98036.06;5108349;28;20128;-69
2022/05/13 06:57:58;;;;;;;3.65;1.45;;;;;;;24.92;30.48;98050.38;5107972;28;20051;-68
2022/05/13 07:00:23;;;;;;;3.33;1.02;;;;;;;24.91;30.37;98051.44;5108115;28;20028;-67
2022/05/13 07:02:49;;;;;;;4.38;1.20;;;;;;;24.88;30.73;98050.06;5107621;28;20059;-67
2022/05/13 07:05:16;;;;;;;5.18;1.40;;;;;;;24.88;30.61;98046.53;5104993;28;20034;-68
2022/05/13 07:07:42;;;;;;;4.63;1.05;;;;;;;24.89;30.67;98050.88;5105719;28;20052;-69
2022/05/13 07:10:11;;;;;;;4.47;1.45;;;;;;;24.91;30.68;98046.88;5107054;28;20038;-69
2022/05/13 07:12:37;;;;;;;3.13;0.98;;;;;;;24.96;30.78;98044.22;5107918;28;20078;-69
2022/05/13 07:15:04;;;;;;;5.03;1.55;;;;;;;25.07;30.73;98052.47;5108111;28;20089;-69
2022/05/13 07:17:30;;;;;;;3.42;0.80;;;;;;;25.04;30.45;98052.97;5107764;28;20059;-69
2022/05/13 07:19:56;;;;;;;2.22;0.70;;;;;;;25.03;30.47;98054.03;5107490;28;20104;-70
2022/05/13 07:22:22;;;;;;;3.10;0.93;;;;;;;25.03;30.77;98056.75;5107130;28;20047;-70
2022/05/13 07:24:48;;;;;;;3.28;0.80;;;;;;;25.07;30.15;98055.97;5107793;28;20034;-68
2022/05/13 07:27:14;;;;;;;3.72;0.80;;;;;;;25.07;30.30;98049.78;5107549;28;20068;-68
2022/05/13 07:29:41;;;;;;;3.15;0.73;;;;;;;25.03;30.14;98052.13;5107730;28;20066;-69
2022/05/13 07:32:07;;;;;;;2.42;0.95;;;;;;;25.02;30.57;98052.41;5106851;28;20035;-68
2022/05/13 07:34:33;;;;;;;2.28;0.80;;;;;;;25.01;30.32;98051.56;5107562;28;20036;-69
2022/05/13 07:36:58;;;;;;;1.50;0.70;;;;;;;24.97;29.98;98045.84;5107474;28;20063;-69
2022/05/13 07:42:10;;;;;;;1.63;0.63;;;;;;;25.02;30.15;98044.28;5107182;28;20067;-69
2022/05/13 07:44:36;;;;;;;3.55;0.77;;;;;;;25.02;29.96;98074.06;5107478;28;20304;-70
2022/05/13 07:47:04;;;;;;;3.35;0.70;;;;;;;25.01;30.36;98061.59;5106956;28;20040;-70
2022/05/13 07:49:29;;;;;;;1.90;0.47;;;;;;;25.04;30.08;98059.19;5107092;28;20244;-68
2022/05/13 07:51:55;;;;;;;2.97;0.50;;;;;;;25.09;29.98;98055.72;5107070;28;20028;-65
2022/05/13 07:54:20;;;;;;;3.50;0.52;;;;;;;25.14;29.64;98061.22;5106356;28;20135;-68
2022/05/13 07:56:45;;;;;;;1.92;0.70;;;;;;;25.18;29.89;98056.94;5085853;28;20036;-67
2022/05/13 07:59:11;;;;;;;3.40;0.70;;;;;;;25.23;29.80;98056.97;5105948;28;20048;-67
2022/05/13 08:01:37;;;;;;;4.57;0.60;;;;;;;25.27;29.74;98046.47;5106630;28;20034;-69
2022/05/13 08:04:03;;;;;;;2.42;0.68;;;;;;;25.27;29.62;98055.41;5106873;28;20211;-69
2022/05/13 08:06:28;;;;;;;1.65;1.08;;;;;;;25.28;29.51;98053.53;5105006;28;20024;-67
2022/05/13 08:08:58;;;;;;;2.30;0.52;;;;;;;25.27;29.12;98052.69;5105402;28;20027;-68
2022/05/13 08:11:25;;;;;;;2.45;0.70;;;;;;;25.26;29.09;98056.47;5106682;28;20059;-67
2022/05/13 08:13:51;;;;;;;1.02;0.30;;;;;;;25.25;29.38;98038.59;5097543;28;20031;-67
2022/05/13 08:16:19;;;;;;;1.70;0.40;;;;;;;25.27;29.17;98050.00;5106656;28;20036;-67
2022/05/13 08:18:46;;;;;;;0.98;0.32;;;;;;;25.29;29.10;98039.72;5106136;28;20265;-68
2022/05/13 08:21:14;;;;;;;1.08;0.60;;;;;;;25.30;29.46;98008.03;5106702;28;20032;-69
2022/05/13 08:23:40;;;;;;;2.75;0.60;;;;;;;25.32;29.21;98040.28;5106436;28;20028;-68
2022/05/13 08:26:07;;;;;;;1.15;0.40;;;;;;;25.32;29.21;98045.72;5106217;28;20257;-68
2022/05/13 08:28:33;;;;;;;1.27;0.35;;;;;;;25.34;29.50;98040.88;5097562;28;20230;-68
2022/05/13 08:31:00;;;;;;;1.85;0.40;;;;;;;25.37;29.60;98046.56;5105202;28;20028;-68
2022/05/13 08:33:25;;;;;;;0.75;0.40;;;;;;;25.42;29.59;98037.72;5106135;28;20093;-67
2022/05/13 08:35:54;;;;;;;2.10;0.60;;;;;;;25.44;29.10;98041.78;5106146;28;20048;-67
2022/05/13 08:38:23;;;;;;;3.55;0.50;;;;;;;25.48;29.12;98052.13;5106550;28;20050;-68
2022/05/13 08:40:55;;;;;;;4.13;0.57;;;;;;;25.51;29.42;98060.56;5106692;28;20040;-68
2022/05/13 08:43:34;;;;;;;1.27;0.50;;;;;;;25.56;29.35;98057.91;5106135;28;20035;-68
2022/05/13 08:46:09;;;;;;;3.13;0.70;;;;;;;25.58;29.19;98058.47;5105965;28;20095;-68
2022/05/13 08:48:47;;;;;;;2.08;0.52;;;;;;;25.61;28.88;98053.63;5106588;28;20085;-68
2022/05/13 08:51:21;;;;;;;1.10;0.30;;;;;;;25.68;29.23;98038.78;5106442;28;20103;-68
2022/05/13 08:54:05;;;;;;;0.90;0.50;;;;;;;25.72;28.83;98050.75;5086242;28;20241;-69
2022/05/13 08:56:32;;;;;;;1.35;0.60;;;;;;;25.74;28.64;98045.06;5074563;28;20253;-68
2022/05/13 08:59:00;;;;;;;0.93;0.50;;;;;;;25.76;28.19;98045.63;5105968;28;20036;-69
2022/05/13 09:01:34;;;;;;;1.13;0.63;;;;;;;25.77;28.94;98041.03;5106212;28;20023;-68
2022/05/13 09:04:07;;;;;;;3.60;0.63;;;;;;;25.79;28.50;98036.16;5101082;28;20039;-68
2022/05/13 09:06:48;;;;;;;1.63;0.45;;;;;;;25.83;27.99;98043.53;5106325;28;20187;-69
2022/05/13 09:09:13;;;;;;;1.17;0.40;;;;;;;25.85;28.19;98046.78;5108865;28;20077;-68
2022/05/13 09:11:55;;;;;;;1.42;0.50;;;;;;;25.85;28.58;98037.88;5108616;28;20085;-70
2022/05/13 09:14:20;;;;;;;3.83;1.50;;;;;;;25.86;28.88;98044.91;5108005;28;20024;-68
2022/05/13 09:16:51;;;;;;;4.70;1.58;;;;;;;25.89;28.94;98036.25;5107179;28;20240;-68
2022/05/13 09:22:46;;;;;;;5.68;1.60;;;;;;;25.88;28.39;98054.41;5107695;28;20024;-67
2022/05/13 09:25:27;;;;;;;11.43;1.58;;;;;;;25.89;29.00;98039.78;5109379;28;20099;-67
2022/05/13 09:28:00;;;;;;;;;;;;;;;25.81;29.09;98055.69;5109925;28;20050;-69
2022/05/13 09:30:34;;;;;;;4.40;1.58;;;;;;;25.81;29.01;98040.25;5106531;28;19908;-68
2022/05/13 09:33:47;;;;;;;4.10;0.90;;;;;;;25.84;28.89;98038.94;5109229;28;20019;-69
2022/05/13 09:36:26;;;;;;;6.95;1.90;;;;;;;25.80;28.86;98029.69;5106342;28;20199;-68
2022/05/13 09:38:52;;;;;;;4.65;1.15;;;;;;;25.77;28.72;98038.31;5109110;28;20040;-67
2022/05/13 09:41:31;;;;;;;5.60;2.60;;;;;;;25.77;28.64;98059.97;5099012;28;20059;-65
2022/05/13 09:44:06;;;;;;;4.18;1.73;;;;;;;25.73;28.46;98057.78;5108789;28;20028;-69
2022/05/13 09:46:38;;;;;;;8.98;1.98;;;;;;;25.73;28.56;98030.69;5104604;28;20037;-67
2022/05/13 09:49:36;;;;;;;6.22;1.63;;;;;;;25.74;28.43;98058.63;5107635;28;20051;-69
2022/05/13 09:52:14;;;;;;;2.20;0.90;;;;;;;25.74;28.26;98069.47;5108957;28;20031;-69
2022/05/13 09:54:42;;;;;;;4.47;0.82;;;;;;;25.80;27.93;98075.72;5109425;28;20088;-68
2022/05/13 09:57:16;;;;;;;1.88;0.80;;;;;;;25.85;27.74;98062.25;5109260;28;20062;-68
2022/05/13 09:59:52;;;;;;;5.65;1.20;;;;;;;25.90;27.89;98068.53;5108761;28;20048;-68
2022/05/13 10:02:29;;;;;;;11.77;1.35;;;;;;;25.94;27.86;98049.84;5107686;28;20020;-68
2022/05/13 10:05:22;;;;;;;4.47;0.77;;;;;;;26.01;27.62;98087.56;5102709;28;20157;-66
2022/05/13 10:07:53;;;;;;;4.18;0.98;;;;;;;26.03;27.44;98072.69;5095791;28;20027;-67
2022/05/13 10:16:21;;;;;;;2.40;0.57;;;;;;;26.09;27.08;98076.28;5108036;28;20035;-67
2022/05/13 10:19:32;;;;;;;2.55;0.63;;;;;;;26.03;26.92;98075.38;5108509;28;20103;-68
2022/05/13 10:22:09;;;;;;;3.20;0.70;;;;;;;26.03;26.98;98071.88;5097261;28;20075;-67
2022/05/13 10:24:43;;;;;;;2.30;0.47;;;;;;;26.06;26.64;98087.63;5107282;28;20038;-65
2022/05/13 10:27:25;;;;;;;5.15;0.60;;;;;;;26.07;26.54;98075.72;5104903;28;20140;-67
2022/05/13 10:29:57;;;;;;;3.33;0.70;;;;;;;26.11;26.84;98078.75;5105238;28;20028;-68
2022/05/13 10:32:40;;;;;;;5.20;1.05;;;;;;;26.12;26.63;98092.03;5107814;28;20067;-68
2022/05/13 10:35:11;;;;;;;3.92;0.52;;;;;;;26.12;26.62;98062.22;5107342;27;20133;-68
2022/05/13 10:37:52;;;;;;;3.08;0.40;;;;;;;26.10;26.36;98087.91;5108017;28;20024;-68
2022/05/13 10:40:20;;;;;;;1.63;0.60;;;;;;;26.07;26.27;98086.56;5108272;28;20040;-68
2022/05/13 10:43:01;;;;;;;5.20;0.47;;;;;;;26.08;26.14;98074.63;5107733;28;20066;-68
2022/05/13 10:45:30;;;;;;;1.10;0.40;;;;;;;26.10;25.97;98077.06;5103598;28;20020;-68
2022/05/13 10:48:15;;;;;;;1.85;0.40;;;;;;;26.10;25.95;98068.94;5103753;28;20290;-68
2022/05/13 10:50:52;;;;;;;1.55;0.80;;;;;;;26.08;26.03;98054.84;5108356;28;20024;-68
2022/05/13 10:53:38;;;;;;;2.85;0.30;;;;;;;26.04;26.03;98043.69;5107445;28;20069;-68
2022/05/13 10:56:22;;;;;;;2.45;0.40;;;;;;;26.01;26.04;98053.19;5098520;28;20048;-68
2022/05/13 10:58:53;;;;;;;3.13;0.43;;;;;;;26.00;26.09;98051.53;5091640;28;20035;-69
2022/05/13 11:01:44;;;;;;;1.83;0.40;;;;;;;26.00;26.07;98048.81;5107663;28;20119;-68
2022/05/13 11:04:12;;;;;;;1.55;0.20;;;;;;;25.98;26.08;98042.84;5107683;28;20073;-68
2022/05/13 11:07:04;;;;;;;2.25;0.55;;;;;;;25.98;26.32;98050.97;5107345;28;20087;-68
2022/05/13 11:09:35;;;;;;;3.95;0.50;;;;;;;25.97;26.46;98059.34;5107413;28;20090;-67
2022/05/13 11:12:28;;;;;;;1.92;0.50;;;;;;;25.98;26.17;98033.88;5089323;28;20036;-67
2022/05/13 11:15:06;;;;;;;4.55;0.40;;;;;;;25.99;26.05;98030.94;5107748;28;20028;-68
2022/05/13 11:17:34;;;;;;;1.45;0.43;;;;;;;25.98;26.00;98055.56;5107773;28;20077;-68
2022/05/13 11:20:30;;;;;;;0.70;0.32;;;;;;;25.97;26.43;98043.09;5107611;28;20028;-68
2022/05/13 11:23:27;;;;;;;1.48;0.50;;;;;;;25.95;26.16;98061.53;5106545;28;20768;-68
2022/05/13 11:26:12;;;;;;;1.80;0.30;;;;;;;25.92;26.52;98041.16;5089550;28;20047;-67
2022/05/13 11:29:06;;;;;;;1.73;0.43;;;;;;;25.90;26.60;98043.31;5100522;28;20024;-68
2022/05/13 11:32:06;;;;;;;4.70;0.50;;;;;;;25.90;26.41;98038.72;5070598;28;20047;-68
2022/05/13 11:35:01;;;;;;;1.20;0.40;;;;;;;25.89;26.57;98038.97;5106186;28;20039;-68
2022/05/13 11:37:32;;;;;;;5.57;0.52;;;;;;;25.90;26.57;98035.19;5106452;28;20028;-68
2022/05/13 11:40:26;;;;;;;0.77;0.30;;;;;;;25.90;26.53;98033.31;5107125;28;20024;-69
2022/05/13 11:43:18;;;;;;;0.82;0.30;;;;;;;25.92;26.50;98037.66;5106926;28;20032;-69
2022/05/13 11:46:01;;;;;;;1.13;0.40;;;;;;;25.92;26.71;98026.81;5106410;28;20059;-69
2022/05/13 11:48:33;;;;;;;1.65;0.40;;;;;;;25.94;26.56;98020.03;5106873;28;20284;-69
2022/05/13 11:51:20;;;;;;;0.88;0.45;;;;;;;25.93;26.19;98031.16;5106905;28;20118;-69
2022/05/13 11:53:52;;;;;;;0.82;0.40;;;;;;;25.92;26.35;98037.66;5106720;28;20028;-69
2022/05/13 11:56:29;;;;;;;2.67;0.77;;;;;;;25.92;26.62;98002.41;5105470;28;20051;-68
2022/05/13 11:58:57;;;;;;;8.02;1.50;;;;;;;25.93;26.46;98037.38;5096701;28;20032;-69
2022/05/13 12:01:38;;;;;;;2.28;0.70;;;;;;;25.95;26.57;98042.56;5106273;28;20083;-69
2022/05/13 12:04:12;;;;;;;4.03;0.52;;;;;;;25.94;26.39;98084.28;5105844;28;20020;-69
2022/05/13 12:06:50;;;;;;;1.48;0.80;;;;;;;25.94;26.46;98071.53;5101666;28;20250;-69
2022/05/13 12:09:46;;;;;;;2.22;0.68;;;;;;;25.93;26.40;98067.19;5106508;28;20093;-69
2022/05/13 12:12:12;;;;;;;1.27;0.35;;;;;;;25.96;26.37;98050.41;5074047;28;20052;-69
2022/05/13 12:14:45;;;;;;;1.40;0.55;;;;;;;26.00;26.60;98058.84;5086956;28;20020;-69